Time;durP1;ratioP1;P1;durP2;ratioP2;P2;SDS_P1;SDS_P2;PMS_P1;PMS_P2;Temp;Humidity;BMP_temperature;BMP_pressure;BME280_temperature;BME280_humidity;BME280_pressure;Samples;Min_cycle;Max_cycle;Signal;HPM_P1;HPM_P2
2022/10/04 00:01:15;;;;;;;1.05;0.90;;;;;;;;;;4164974;28;20111;-41
2022/10/04 00:03:26;;;;;;;1.45;0.82;;;;;;;;;;4165116;28;20184;-41
2022/10/04 00:05:28;;;;;;;1.10;1.00;;;;;;;;;;4146762;28;20104;-41
2022/10/04 00:07:33;;;;;;;0.80;0.80;;;;;;;;;;4161838;28;20116;-41
2022/10/04 00:09:44;;;;;;;0.85;0.80;;;;;;;;;;4153684;28;20103;-41
2022/10/04 00:11:47;;;;;;;0.77;0.70;;;;;;;;;;4163731;28;20065;-41
2022/10/04 00:13:52;;;;;;;0.75;0.75;;;;;;;;;;4163453;28;20053;-41
2022/10/04 00:15:53;;;;;;;1.65;0.60;;;;;;;;;;4153581;28;20057;-41
2022/10/04 00:18:28;;;;;;;0.93;0.88;;;;;;;;;;4163664;28;20056;-41
2022/10/04 00:20:52;;;;;;;0.80;0.80;;;;;;;;;;4164361;28;20057;-41
2022/10/04 00:23:24;;;;;;;0.98;0.88;;;;;;;;;;4164861;28;20054;-41
2022/10/04 00:25:35;;;;;;;0.95;0.80;;;;;;;;;;4164695;28;20103;-41
2022/10/04 00:27:37;;;;;;;0.60;0.60;;;;;;;;;;4164704;28;20072;-41
2022/10/04 00:29:41;;;;;;;1.05;0.95;;;;;;;;;;4164521;28;20498;-41
2022/10/04 00:32:07;;;;;;;0.85;0.80;;;;;;;;;;4164228;28;20436;-41
2022/10/04 00:34:08;;;;;;;0.90;0.80;;;;;;;;;;4164089;28;20053;-42
2022/10/04 00:36:24;;;;;;;0.80;0.70;;;;;;;;;;4164433;28;20058;-41
2022/10/04 00:38:27;;;;;;;0.70;0.60;;;;;;;;;;4162900;28;20489;-41
2022/10/04 00:40:35;;;;;;;0.80;0.80;;;;;;;;;;4164500;28;20060;-41
2022/10/04 00:42:43;;;;;;;0.80;0.70;;;;;;;;;;4163261;28;20060;-41
2022/10/04 00:44:57;;;;;;;0.77;0.73;;;;;;;;;;4162854;28;20057;-41
2022/10/04 00:46:59;;;;;;;1.05;0.80;;;;;;;;;;4164552;28;20049;-41
2022/10/04 00:49:03;;;;;;;0.88;0.88;;;;;;;;;;4163760;28;20045;-41
2022/10/04 00:51:11;;;;;;;0.80;0.80;;;;;;;;;;4164445;28;20515;-41
2022/10/04 00:53:47;;;;;;;0.93;0.80;;;;;;;;;;4163842;28;20394;-41
2022/10/04 00:55:53;;;;;;;0.70;0.70;;;;;;;;;;4163870;28;20061;-41
2022/10/04 00:57:59;;;;;;;0.77;0.70;;;;;;;;;;4163137;28;20065;-41
2022/10/04 01:00:11;;;;;;;0.80;0.70;;;;;;;;;;4151335;28;20096;-41
2022/10/04 01:02:19;;;;;;;0.90;0.90;;;;;;;;;;4163061;28;20053;-41
2022/10/04 01:04:38;;;;;;;0.90;0.85;;;;;;;;;;4163247;28;20103;-41
2022/10/04 01:06:40;;;;;;;0.77;0.77;;;;;;;;;;4163968;28;20064;-41
2022/10/04 01:08:53;;;;;;;0.90;0.75;;;;;;;;;;4162709;28;20063;-41
2022/10/04 01:11:08;;;;;;;1.13;0.70;;;;;;;;;;4158607;28;20068;-41
2022/10/04 01:13:18;;;;;;;0.80;0.80;;;;;;;;;;4151143;28;20112;-41
2022/10/04 01:15:41;;;;;;;0.68;0.68;;;;;;;;;;4164067;28;20076;-42
2022/10/04 01:18:05;;;;;;;0.60;0.60;;;;;;;;;;4161977;28;20095;-41
2022/10/04 01:20:33;;;;;;;1.70;0.95;;;;;;;;;;4153632;28;20099;-41
2022/10/04 01:22:40;;;;;;;1.00;0.82;;;;;;;;;;4162858;28;20053;-41
2022/10/04 01:24:43;;;;;;;0.70;0.60;;;;;;;;;;4150416;28;20456;-42
2022/10/04 01:26:45;;;;;;;1.00;0.90;;;;;;;;;;4162626;28;20061;-41
2022/10/04 01:28:46;;;;;;;0.88;0.73;;;;;;;;;;4163791;28;20053;-41
2022/10/04 01:30:47;;;;;;;0.82;0.73;;;;;;;;;;4163666;28;20054;-41
2022/10/04 01:32:49;;;;;;;0.68;0.68;;;;;;;;;;4152065;28;20455;-41
2022/10/04 01:34:51;;;;;;;1.00;0.70;;;;;;;;;;4163021;28;20480;-41
2022/10/04 01:36:54;;;;;;;0.60;0.60;;;;;;;;;;4163651;28;20053;-41
2022/10/04 01:38:56;;;;;;;0.90;0.70;;;;;;;;;;4163006;28;20558;-41
2022/10/04 01:40:59;;;;;;;0.88;0.77;;;;;;;;;;4164101;28;20103;-41
2022/10/04 01:43:04;;;;;;;0.65;0.65;;;;;;;;;;4163595;28;20045;-42
2022/10/04 01:45:28;;;;;;;0.90;0.80;;;;;;;;;;4162199;28;20507;-41
2022/10/04 01:47:43;;;;;;;0.90;0.70;;;;;;;;;;4151150;28;20107;-41
2022/10/04 01:49:45;;;;;;;0.77;0.65;;;;;;;;;;4161759;28;20065;-41
2022/10/04 01:51:57;;;;;;;1.08;0.70;;;;;;;;;;4159271;28;20673;-41
2022/10/04 01:54:05;;;;;;;1.33;0.80;;;;;;;;;;4163888;28;20061;-43
2022/10/04 01:56:13;;;;;;;1.27;0.95;;;;;;;;;;4163040;28;20385;-41
2022/10/04 01:58:21;;;;;;;0.63;0.60;;;;;;;;;;4144738;28;20058;-41
2022/10/04 02:00:23;;;;;;;0.80;0.80;;;;;;;;;;4160556;28;20088;-41
2022/10/04 02:02:39;;;;;;;0.63;0.63;;;;;;;;;;4162207;28;20499;-41
2022/10/04 02:04:41;;;;;;;0.85;0.80;;;;;;;;;;4144586;28;20484;-41
2022/10/04 02:06:44;;;;;;;0.75;0.68;;;;;;;;;;4162010;28;20509;-41
2022/10/04 02:08:48;;;;;;;0.80;0.80;;;;;;;;;;4152653;28;20181;-41
2022/10/04 02:10:51;;;;;;;1.15;0.82;;;;;;;;;;4150701;28;20456;-41
2022/10/04 02:12:53;;;;;;;1.00;0.75;;;;;;;;;;4161175;28;20056;-41
2022/10/04 02:14:55;;;;;;;0.77;0.68;;;;;;;;;;4159822;28;20575;-41
2022/10/04 02:16:57;;;;;;;0.70;0.70;;;;;;;;;;4146752;28;20126;-41
2022/10/04 02:18:58;;;;;;;0.60;0.60;;;;;;;;;;4160620;28;20096;-41
2022/10/04 02:21:00;;;;;;;0.68;0.65;;;;;;;;;;4160882;28;20061;-41
2022/10/04 02:23:02;;;;;;;0.75;0.75;;;;;;;;;;4143723;28;20057;-41
2022/10/04 02:25:04;;;;;;;0.90;0.80;;;;;;;;;;4160822;28;20064;-41
2022/10/04 02:27:05;;;;;;;0.60;0.60;;;;;;;;;;4143546;28;20112;-41
2022/10/04 02:29:08;;;;;;;0.63;0.63;;;;;;;;;;4136110;28;20058;-41
2022/10/04 02:33:30;;;;;;;1.30;0.80;;;;;;;;;;4147603;28;20501;-41
2022/10/04 02:35:35;;;;;;;1.20;1.10;;;;;;;;;;4160664;28;20054;-41
2022/10/04 02:37:36;;;;;;;0.85;0.85;;;;;;;;;;4158108;28;20056;-41
2022/10/04 02:39:46;;;;;;;0.70;0.70;;;;;;;;;;4162751;28;20056;-41
2022/10/04 02:41:54;;;;;;;0.90;0.73;;;;;;;;;;4163563;28;20088;-41
2022/10/04 02:44:04;;;;;;;0.60;0.60;;;;;;;;;;4155633;28;20057;-41
2022/10/04 02:46:13;;;;;;;0.60;0.60;;;;;;;;;;4147017;28;20109;-40
2022/10/04 02:48:32;;;;;;;0.77;0.70;;;;;;;;;;4134575;28;20112;-41
2022/10/04 02:50:36;;;;;;;0.90;0.65;;;;;;;;;;4156101;28;20064;-40
2022/10/04 02:52:38;;;;;;;0.50;0.50;;;;;;;;;;4159539;28;20176;-41
2022/10/04 02:55:03;;;;;;;0.90;0.60;;;;;;;;;;4162495;28;20061;-41
2022/10/04 02:57:19;;;;;;;0.50;0.50;;;;;;;;;;4163954;28;20088;-43
2022/10/04 02:59:20;;;;;;;0.73;0.73;;;;;;;;;;4165890;28;20084;-41
2022/10/04 03:01:28;;;;;;;0.60;0.60;;;;;;;;;;4166011;28;20053;-41
2022/10/04 03:03:29;;;;;;;0.55;0.55;;;;;;;;;;4165925;28;20057;-41
2022/10/04 03:05:31;;;;;;;0.63;0.63;;;;;;;;;;4162925;28;20060;-42
2022/10/04 03:07:34;;;;;;;1.23;0.70;;;;;;;;;;4165760;28;20460;-41
2022/10/04 03:09:37;;;;;;;0.68;0.60;;;;;;;;;;4165860;28;20061;-41
2022/10/04 03:11:41;;;;;;;0.63;0.63;;;;;;;;;;4165161;28;20111;-41
2022/10/04 03:13:46;;;;;;;0.80;0.60;;;;;;;;;;4165985;28;20530;-41
2022/10/04 03:15:48;;;;;;;0.57;0.57;;;;;;;;;;4165476;28;20121;-41
2022/10/04 03:17:50;;;;;;;0.60;0.47;;;;;;;;;;4164587;28;20045;-41
2022/10/04 03:19:51;;;;;;;0.60;0.60;;;;;;;;;;4165315;28;20064;-41
2022/10/04 03:21:55;;;;;;;0.57;0.57;;;;;;;;;;4165753;28;20061;-42
2022/10/04 03:23:58;;;;;;;1.35;0.88;;;;;;;;;;4164150;28;20524;-41
2022/10/04 03:26:02;;;;;;;0.80;0.73;;;;;;;;;;4165706;28;20053;-41
2022/10/04 03:28:04;;;;;;;1.60;0.77;;;;;;;;;;4148368;28;20061;-41
2022/10/04 03:30:06;;;;;;;0.70;0.63;;;;;;;;;;4158409;28;20057;-41
2022/10/04 03:32:15;;;;;;;0.95;0.70;;;;;;;;;;4148031;28;20049;-41
2022/10/04 03:34:19;;;;;;;0.93;0.68;;;;;;;;;;4165176;28;20075;-41
2022/10/04 03:36:22;;;;;;;0.55;0.55;;;;;;;;;;4165503;28;20107;-41
2022/10/04 03:38:25;;;;;;;1.00;0.75;;;;;;;;;;4165633;28;20091;-41
2022/10/04 03:40:29;;;;;;;0.50;0.50;;;;;;;;;;4165116;28;20049;-41
2022/10/04 03:42:33;;;;;;;0.77;0.75;;;;;;;;;;4164433;28;20057;-41
2022/10/04 03:44:35;;;;;;;0.60;0.60;;;;;;;;;;4157377;28;20057;-41
2022/10/04 03:46:36;;;;;;;1.00;0.85;;;;;;;;;;4164965;28;20049;-41
2022/10/04 03:48:44;;;;;;;0.60;0.60;;;;;;;;;;4164320;28;20100;-41
2022/10/04 03:50:47;;;;;;;1.17;0.77;;;;;;;;;;4159780;28;20057;-41
2022/10/04 03:52:53;;;;;;;0.85;0.60;;;;;;;;;;4161946;28;20436;-41
2022/10/04 03:54:57;;;;;;;0.80;0.80;;;;;;;;;;4163148;28;20571;-41
2022/10/04 03:56:59;;;;;;;1.15;0.60;;;;;;;;;;4162793;28;20057;-40
2022/10/04 03:59:04;;;;;;;0.57;0.57;;;;;;;;;;4161808;28;20094;-41
2022/10/04 04:01:19;;;;;;;0.57;0.57;;;;;;;;;;4161948;28;20061;-41
2022/10/04 04:03:21;;;;;;;0.70;0.70;;;;;;;;;;4161226;28;20064;-40
2022/10/04 04:05:28;;;;;;;0.70;0.70;;;;;;;;;;4151038;28;20061;-40
2022/10/04 04:07:48;;;;;;;0.50;0.50;;;;;;;;;;4161742;28;20053;-41
2022/10/04 04:09:59;;;;;;;0.57;0.57;;;;;;;;;;4161632;28;20060;-41
2022/10/04 04:12:01;;;;;;;1.02;0.75;;;;;;;;;;4161224;28;20057;-41
2022/10/04 04:14:09;;;;;;;0.50;0.50;;;;;;;;;;4152181;28;20053;-41
2022/10/04 04:16:11;;;;;;;0.68;0.60;;;;;;;;;;4158151;28;20460;-41
2022/10/04 04:18:19;;;;;;;0.57;0.50;;;;;;;;;;4161483;28;20123;-41
2022/10/04 04:20:27;;;;;;;0.40;0.40;;;;;;;;;;4161136;28;20432;-41
2022/10/04 04:22:30;;;;;;;0.63;0.60;;;;;;;;;;4162876;28;20111;-41
2022/10/04 04:24:31;;;;;;;0.60;0.60;;;;;;;;;;4163018;28;20462;-41
2022/10/04 04:26:41;;;;;;;1.75;0.40;;;;;;;;;;4162043;28;20076;-41
2022/10/04 04:28:47;;;;;;;;;;;;;;;;;;4161964;28;20108;-41
2022/10/04 04:30:53;;;;;;;0.65;0.65;;;;;;;;;;4162788;28;19943;-41
2022/10/04 04:32:56;;;;;;;0.80;0.70;;;;;;;;;;4161153;28;20076;-40
2022/10/04 04:35:05;;;;;;;0.65;0.65;;;;;;;;;;4161040;28;20096;-41
2022/10/04 04:37:09;;;;;;;0.50;0.50;;;;;;;;;;4162961;28;20064;-41
2022/10/04 04:39:33;;;;;;;1.17;0.95;;;;;;;;;;4161079;28;20498;-41
2022/10/04 04:41:35;;;;;;;0.50;0.50;;;;;;;;;;4162808;28;20447;-41
2022/10/04 04:43:42;;;;;;;0.52;0.52;;;;;;;;;;4161032;28;20103;-41
2022/10/04 04:45:44;;;;;;;0.47;0.47;;;;;;;;;;4144951;28;20457;-41
2022/10/04 04:47:49;;;;;;;0.47;0.43;;;;;;;;;;4144854;28;20053;-41
2022/10/04 04:49:51;;;;;;;0.82;0.70;;;;;;;;;;4158791;28;20464;-41
2022/10/04 04:51:52;;;;;;;0.60;0.60;;;;;;;;;;4157788;28;20057;-41
2022/10/04 04:53:54;;;;;;;0.60;0.60;;;;;;;;;;4164383;28;20049;-42
2022/10/04 04:56:01;;;;;;;0.60;0.60;;;;;;;;;;4164085;28;20111;-41
2022/10/04 04:58:03;;;;;;;0.50;0.50;;;;;;;;;;4163935;28;20084;-41
2022/10/04 05:00:04;;;;;;;0.80;0.63;;;;;;;;;;4161757;28;20049;-41
2022/10/04 05:02:26;;;;;;;0.50;0.50;;;;;;;;;;4162679;28;20057;-41
2022/10/04 05:04:27;;;;;;;0.68;0.52;;;;;;;;;;4145077;28;20054;-41
2022/10/04 05:06:30;;;;;;;0.70;0.50;;;;;;;;;;4162523;28;20065;-41
2022/10/04 05:08:32;;;;;;;0.95;0.85;;;;;;;;;;4162240;28;20054;-41
2022/10/04 05:10:34;;;;;;;0.80;0.40;;;;;;;;;;4163642;28;20061;-41
2022/10/04 05:12:35;;;;;;;0.80;0.30;;;;;;;;;;4163443;28;20103;-41
2022/10/04 05:14:38;;;;;;;0.63;0.50;;;;;;;;;;4162419;28;20054;-41
2022/10/04 05:16:49;;;;;;;0.20;0.20;;;;;;;;;;4162255;28;20401;-41
2022/10/04 05:18:59;;;;;;;0.47;0.43;;;;;;;;;;4161785;28;20057;-40
2022/10/04 05:21:23;;;;;;;0.40;0.40;;;;;;;;;;4162229;28;20520;-41
2022/10/04 05:23:24;;;;;;;0.55;0.20;;;;;;;;;;4162101;28;20580;-41
2022/10/04 05:25:29;;;;;;;0.85;0.47;;;;;;;;;;4160759;28;20061;-40
2022/10/04 05:27:38;;;;;;;0.60;0.40;;;;;;;;;;4163419;28;20057;-41
2022/10/04 05:29:50;;;;;;;0.63;0.30;;;;;;;;;;4155517;28;20100;-41
2022/10/04 05:32:33;;;;;;;0.28;0.20;;;;;;;;;;4158420;28;20057;-42
2022/10/04 05:34:53;;;;;;;0.32;0.30;;;;;;;;;;4138385;28;20050;-41
2022/10/04 05:37:18;;;;;;;0.40;0.25;;;;;;;;;;4128593;28;20058;-40
2022/10/04 05:39:57;;;;;;;1.02;0.30;;;;;;;;;;4139667;28;20076;-41
2022/10/04 05:41:59;;;;;;;0.40;0.40;;;;;;;;;;4128987;28;20054;-42
2022/10/04 05:44:01;;;;;;;0.60;0.40;;;;;;;;;;4163211;28;20057;-41
2022/10/04 05:46:22;;;;;;;0.73;0.47;;;;;;;;;;4163247;28;20049;-41
2022/10/04 05:48:24;;;;;;;0.68;0.35;;;;;;;;;;4157525;28;20771;-40
2022/10/04 05:50:40;;;;;;;0.70;0.40;;;;;;;;;;4155701;28;20067;-41
2022/10/04 05:52:42;;;;;;;1.20;0.40;;;;;;;;;;4152177;28;20056;-41
2022/10/04 05:54:43;;;;;;;1.33;0.30;;;;;;;;;;4158812;28;20057;-41
2022/10/04 05:57:14;;;;;;;0.32;0.32;;;;;;;;;;4155500;28;20053;-40
2022/10/04 05:59:40;;;;;;;0.40;0.30;;;;;;;;;;4157896;28;20111;-40
2022/10/04 06:01:56;;;;;;;0.77;0.38;;;;;;;;;;4154122;28;20146;-40
2022/10/04 06:04:15;;;;;;;1.67;0.20;;;;;;;;;;4159111;28;20095;-40
2022/10/04 06:06:23;;;;;;;0.73;0.30;;;;;;;;;;4151973;28;20045;-42
2022/10/04 06:08:43;;;;;;;1.00;0.30;;;;;;;;;;4151200;28;20060;-41
2022/10/04 06:11:22;;;;;;;7.63;0.30;;;;;;;;;;4154839;28;20427;-41
2022/10/04 06:13:29;;;;;;;0.77;0.20;;;;;;;;;;4153861;28;20045;-42
2022/10/04 06:15:39;;;;;;;0.40;0.20;;;;;;;;;;4156423;28;20053;-40
2022/10/04 06:18:08;;;;;;;0.50;0.28;;;;;;;;;;4157102;28;20152;-40
2022/10/04 06:20:31;;;;;;;0.90;0.45;;;;;;;;;;4152934;28;20080;-40
2022/10/04 06:22:32;;;;;;;0.60;0.30;;;;;;;;;;4151232;28;20045;-40
2022/10/04 06:24:37;;;;;;;0.32;0.20;;;;;;;;;;4151317;28;20103;-40
2022/10/04 06:26:44;;;;;;;1.10;0.15;;;;;;;;;;4150835;28;20057;-41
2022/10/04 06:28:51;;;;;;;0.30;0.20;;;;;;;;;;4150642;28;20446;-41
2022/10/04 06:31:23;;;;;;;0.47;0.22;;;;;;;;;;4150337;28;20060;-41
2022/10/04 06:33:45;;;;;;;1.05;0.40;;;;;;;;;;4143935;28;20470;-41
2022/10/04 06:36:14;;;;;;;0.98;0.20;;;;;;;;;;4153554;28;20080;-40
2022/10/04 06:38:45;;;;;;;1.08;0.20;;;;;;;;;;4137497;28;20479;-41
2022/10/04 06:40:59;;;;;;;0.52;0.30;;;;;;;;;;4154955;28;20104;-40
2022/10/04 06:43:31;;;;;;;3.83;0.20;;;;;;;;;;4153598;28;20057;-40
2022/10/04 06:45:57;;;;;;;0.50;0.28;;;;;;;;;;4148508;28;20322;-41
2022/10/04 06:48:07;;;;;;;1.58;0.25;;;;;;;;;;4155732;28;20314;-40
2022/10/04 06:50:21;;;;;;;0.57;0.30;;;;;;;;;;4153885;28;20066;-41
2022/10/04 06:52:49;;;;;;;0.65;0.30;;;;;;;;;;4148052;28;20427;-41
2022/10/04 06:55:14;;;;;;;0.98;0.57;;;;;;;;;;4146038;28;20049;-40
2022/10/04 06:57:41;;;;;;;1.45;0.40;;;;;;;;;;4147437;28;20143;-41
2022/10/04 06:59:51;;;;;;;0.88;0.30;;;;;;;;;;4141814;28;20456;-41
2022/10/04 07:01:59;;;;;;;0.55;0.20;;;;;;;;;;4139973;28;20057;-42
2022/10/04 07:04:37;;;;;;;0.38;0.17;;;;;;;;;;4133939;28;20061;-41
2022/10/04 07:06:46;;;;;;;0.45;0.20;;;;;;;;;;4144521;28;20050;-43
2022/10/04 07:08:50;;;;;;;1.10;0.30;;;;;;;;;;4115902;28;20050;-42
2022/10/04 07:10:54;;;;;;;0.43;0.20;;;;;;;;;;4136561;28;20120;-40
2022/10/04 07:13:04;;;;;;;1.27;0.28;;;;;;;;;;4138584;28;20106;-41
2022/10/04 07:15:15;;;;;;;0.90;0.30;;;;;;;;;;4149262;28;20062;-41
2022/10/04 07:17:23;;;;;;;0.80;0.22;;;;;;;;;;4146225;28;20057;-41
2022/10/04 07:19:35;;;;;;;2.28;0.20;;;;;;;;;;4149122;28;20054;-41
2022/10/04 07:21:48;;;;;;;2.55;0.30;;;;;;;;;;4162141;28;20589;-42
2022/10/04 07:23:55;;;;;;;0.68;0.30;;;;;;;;;;4149792;28;20429;-40
2022/10/04 07:26:21;;;;;;;1.55;0.40;;;;;;;;;;4149322;28;20057;-41
2022/10/04 07:31:26;;;;;;;0.30;0.13;;;;;;;;;;4145086;28;20053;-41
2022/10/04 07:33:29;;;;;;;2.50;0.40;;;;;;;;;;4150520;28;20148;-40
2022/10/04 07:35:53;;;;;;;1.42;0.20;;;;;;;;;;4144532;28;20057;-42
2022/10/04 07:37:59;;;;;;;1.08;0.20;;;;;;;;;;4144461;28;20061;-43
2022/10/04 07:40:15;;;;;;;1.48;0.30;;;;;;;;;;4134079;28;20058;-43
2022/10/04 07:42:36;;;;;;;1.77;0.85;;;;;;;;;;4148179;28;20500;-41
2022/10/04 07:44:39;;;;;;;2.70;0.30;;;;;;;;;;4146518;28;20985;-40
2022/10/04 07:46:41;;;;;;;0.95;0.30;;;;;;;;;;4127508;28;20781;-44
2022/10/04 07:48:42;;;;;;;0.47;0.20;;;;;;;;;;4146647;28;20054;-45
2022/10/04 07:50:58;;;;;;;0.80;0.20;;;;;;;;;;4137824;28;20178;-40
2022/10/04 07:53:07;;;;;;;0.73;0.38;;;;;;;;;;4135445;28;20170;-40
2022/10/04 07:55:20;;;;;;;0.17;0.13;;;;;;;;;;4140973;28;20127;-42
2022/10/04 07:57:36;;;;;;;0.82;0.30;;;;;;;;;;4140188;28;20103;-39
2022/10/04 07:59:37;;;;;;;0.57;0.10;;;;;;;;;;4142471;28;20878;-43
2022/10/04 08:01:57;;;;;;;0.50;0.30;;;;;;;;;;4140137;28;20246;-43
2022/10/04 08:04:01;;;;;;;0.87;0.20;;;;;;;;;;4147074;28;20053;-43
2022/10/04 08:06:30;;;;;;;0.98;0.20;;;;;;;;;;4139934;28;21037;-42
2022/10/04 08:08:48;;;;;;;0.77;0.30;;;;;;;;;;4147354;28;20508;-42
2022/10/04 08:11:21;;;;;;;0.80;0.25;;;;;;;;;;4120513;28;20657;-42
2022/10/04 08:13:49;;;;;;;1.10;0.38;;;;;;;;;;4134010;28;20107;-43
2022/10/04 08:15:51;;;;;;;2.05;0.30;;;;;;;;;;4151701;28;20057;-42
2022/10/04 08:17:59;;;;;;;0.20;0.20;;;;;;;;;;4148617;28;20065;-43
2022/10/04 08:20:22;;;;;;;3.13;0.22;;;;;;;;;;4147412;28;20131;-41
2022/10/04 08:22:40;;;;;;;1.75;0.20;;;;;;;;;;4149475;28;20084;-43
2022/10/04 08:25:00;;;;;;;0.40;0.30;;;;;;;;;;4137364;28;20123;-42
2022/10/04 08:27:26;;;;;;;0.73;0.20;;;;;;;;;;4144934;28;20065;-43
2022/10/04 08:29:59;;;;;;;0.35;0.32;;;;;;;;;;4144567;28;20477;-43
2022/10/04 08:32:19;;;;;;;2.13;0.25;;;;;;;;;;4152328;28;20057;-42
2022/10/04 08:34:27;;;;;;;3.38;0.22;;;;;;;;;;4148679;28;20546;-43
2022/10/04 08:36:41;;;;;;;0.20;0.20;;;;;;;;;;4149128;28;20095;-43
2022/10/04 08:38:47;;;;;;;0.40;0.20;;;;;;;;;;4145937;28;20416;-43
2022/10/04 08:40:57;;;;;;;1.42;0.20;;;;;;;;;;4146812;28;20061;-46
2022/10/04 08:43:28;;;;;;;;;;;;;;;;;;4145735;28;20080;-41
2022/10/04 08:46:08;;;;;;;0.80;0.30;;;;;;;;;;4143913;28;20384;-44
2022/10/04 08:48:30;;;;;;;0.30;0.20;;;;;;;;;;4144537;28;20157;-43
2022/10/04 08:50:53;;;;;;;0.30;0.20;;;;;;;;;;4143800;28;21184;-42
2022/10/04 08:53:30;;;;;;;1.45;0.30;;;;;;;;;;4139333;28;20060;-40
2022/10/04 08:55:49;;;;;;;3.45;0.20;;;;;;;;;;4149226;28;20410;-42
2022/10/04 08:58:12;;;;;;;0.68;0.28;;;;;;;;;;4142233;28;20119;-42
2022/10/04 09:00:19;;;;;;;0.28;0.20;;;;;;;;;;4142408;28;20340;-42
2022/10/04 09:02:40;;;;;;;1.75;0.40;;;;;;;;;;4137913;28;20076;-39
2022/10/04 09:05:08;;;;;;;1.30;0.35;;;;;;;;;;4131480;28;20124;-39
2022/10/04 09:07:35;;;;;;;0.50;0.30;;;;;;;;;;4146765;28;20279;-39
2022/10/04 09:10:06;;;;;;;1.23;0.20;;;;;;;;;;4148145;28;20045;-41
2022/10/04 09:12:19;;;;;;;0.30;0.10;;;;;;;;;;4149398;28;20057;-39
2022/10/04 09:15:02;;;;;;;1.75;0.22;;;;;;;;;;4145548;28;20053;-40
2022/10/04 09:17:21;;;;;;;0.85;0.30;;;;;;;;;;4126241;28;20714;-41
2022/10/04 09:19:52;;;;;;;1.30;0.33;;;;;;;;;;4141466;28;20072;-41
2022/10/04 09:22:17;;;;;;;0.20;0.20;;;;;;;;;;4146402;28;20056;-41
2022/10/04 09:24:33;;;;;;;0.65;0.38;;;;;;;;;;4130023;28;20054;-42
2022/10/04 09:26:51;;;;;;;0.43;0.22;;;;;;;;;;4147675;28;20064;-41
2022/10/04 09:29:31;;;;;;;1.30;0.40;;;;;;;;;;4145659;28;20061;-41
2022/10/04 09:31:41;;;;;;;;;;;;;;;;;;4144740;28;20064;-39
2022/10/04 09:33:55;;;;;;;0.40;0.20;;;;;;;;;;4145134;28;19925;-41
2022/10/04 09:36:26;;;;;;;1.55;0.43;;;;;;;;;;4139192;28;20061;-39
2022/10/04 09:38:42;;;;;;;0.20;0.20;;;;;;;;;;4149290;28;20527;-40
2022/10/04 09:41:21;;;;;;;0.38;0.20;;;;;;;;;;4146624;28;20061;-39
2022/10/04 09:43:44;;;;;;;1.90;0.38;;;;;;;;;;4149636;28;20409;-39
2022/10/04 09:46:28;;;;;;;0.57;0.30;;;;;;;;;;4150019;28;20061;-39
2022/10/04 09:48:41;;;;;;;0.75;0.30;;;;;;;;;;4145186;28;20058;-39
2022/10/04 09:51:24;;;;;;;0.77;0.25;;;;;;;;;;4146852;28;20054;-39
2022/10/04 09:53:48;;;;;;;0.40;0.20;;;;;;;;;;4144824;28;20127;-39
2022/10/04 09:56:25;;;;;;;0.52;0.40;;;;;;;;;;4148006;28;20041;-39
2022/10/04 09:59:04;;;;;;;1.05;0.30;;;;;;;;;;4147228;28;20524;-40
2022/10/04 10:01:17;;;;;;;0.73;0.20;;;;;;;;;;4151904;28;20590;-40
2022/10/04 10:03:18;;;;;;;0.25;0.10;;;;;;;;;;4153542;28;20064;-40
2022/10/04 10:05:38;;;;;;;0.20;0.20;;;;;;;;;;4151821;28;20072;-40
2022/10/04 10:08:08;;;;;;;0.50;0.20;;;;;;;;;;4157057;28;20524;-41
2022/10/04 10:15:58;;;;;;;0.93;0.20;;;;;;;;;;4132924;28;20730;-40
2022/10/04 10:18:38;;;;;;;0.50;0.20;;;;;;;;;;4154225;28;20461;-40
2022/10/04 10:20:58;;;;;;;0.63;0.30;;;;;;;;;;4139264;28;20057;-41
2022/10/04 10:23:42;;;;;;;0.25;0.10;;;;;;;;;;4141386;28;20514;-40
2022/10/04 10:26:05;;;;;;;0.25;0.13;;;;;;;;;;4155608;28;20053;-41
2022/10/04 10:28:29;;;;;;;1.83;0.25;;;;;;;;;;4154362;28;20053;-41
2022/10/04 10:31:08;;;;;;;1.75;0.30;;;;;;;;;;4151308;28;20108;-41
2022/10/04 10:33:37;;;;;;;0.82;0.30;;;;;;;;;;4170198;28;20578;-41
2022/10/04 10:36:12;;;;;;;0.73;0.22;;;;;;;;;;4147686;28;20066;-41
2022/10/04 10:38:13;;;;;;;1.63;0.40;;;;;;;;;;4152687;28;20069;-39
2022/10/04 10:40:58;;;;;;;1.98;0.30;;;;;;;;;;4151436;28;20057;-39
2022/10/04 10:43:06;;;;;;;0.47;0.22;;;;;;;;;;4153810;28;20053;-39
2022/10/04 10:45:33;;;;;;;0.55;0.20;;;;;;;;;;4148974;28;20062;-40
2022/10/04 10:47:47;;;;;;;0.35;0.20;;;;;;;;;;4147982;28;20061;-40
2022/10/04 10:49:57;;;;;;;0.73;0.20;;;;;;;;;;4148616;28;20064;-39
2022/10/04 10:52:24;;;;;;;0.10;0.10;;;;;;;;;;4147006;28;20072;-40
2022/10/04 10:54:36;;;;;;;0.30;0.20;;;;;;;;;;4140100;28;20776;-38
2022/10/04 10:56:41;;;;;;;0.45;0.20;;;;;;;;;;4146957;28;20056;-39
2022/10/04 10:58:56;;;;;;;0.30;0.15;;;;;;;;;;4145613;28;20057;-41
2022/10/04 11:01:33;;;;;;;2.70;0.45;;;;;;;;;;4150692;28;20050;-38
2022/10/04 11:03:49;;;;;;;0.40;0.15;;;;;;;;;;4155231;28;20053;-41
2022/10/04 11:06:11;;;;;;;0.70;0.22;;;;;;;;;;4136212;28;20069;-38
2022/10/04 11:08:49;;;;;;;1.75;0.30;;;;;;;;;;4152692;28;20057;-42
2022/10/04 11:11:00;;;;;;;2.10;0.85;;;;;;;;;;4150112;28;20053;-39
2022/10/04 11:13:36;;;;;;;2.22;0.30;;;;;;;;;;4145581;28;20852;-39
2022/10/04 11:15:48;;;;;;;0.90;0.40;;;;;;;;;;4149133;28;20053;-42
2022/10/04 11:18:24;;;;;;;1.20;0.40;;;;;;;;;;4149333;28;20151;-40
2022/10/04 11:20:50;;;;;;;0.47;0.38;;;;;;;;;;4150116;28;21030;-40
2022/10/04 11:23:13;;;;;;;0.65;0.30;;;;;;;;;;4153042;28;20488;-39
2022/10/04 11:25:53;;;;;;;0.30;0.20;;;;;;;;;;4153297;28;20135;-39
2022/10/04 11:28:06;;;;;;;2.35;0.30;;;;;;;;;;4150957;28;20061;-39
2022/10/04 11:30:25;;;;;;;1.45;0.30;;;;;;;;;;4150957;28;20056;-39
2022/10/04 11:32:29;;;;;;;0.73;0.20;;;;;;;;;;4146407;28;20057;-40
2022/10/04 11:34:37;;;;;;;0.73;0.20;;;;;;;;;;4144386;28;20057;-38
2022/10/04 11:37:00;;;;;;;0.90;0.30;;;;;;;;;;4150316;28;20752;-39
2022/10/04 11:39:29;;;;;;;1.20;0.20;;;;;;;;;;4142077;28;20200;-39
2022/10/04 11:41:42;;;;;;;0.47;0.20;;;;;;;;;;4151220;28;20465;-39
2022/10/04 11:44:13;;;;;;;0.98;0.35;;;;;;;;;;4150761;28;20766;-39
2022/10/04 11:46:20;;;;;;;1.05;0.20;;;;;;;;;;4147255;28;20147;-39
2022/10/04 11:49:19;;;;;;;0.38;0.13;;;;;;;;;;4149010;28;20152;-39
2022/10/04 11:51:57;;;;;;;0.28;0.20;;;;;;;;;;4140012;28;20554;-39
2022/10/04 11:54:16;;;;;;;1.10;0.20;;;;;;;;;;4139768;28;20517;-39
2022/10/04 11:56:39;;;;;;;2.00;0.20;;;;;;;;;;4146093;28;20406;-39
2022/10/04 11:58:59;;;;;;;2.38;0.40;;;;;;;;;;4148220;28;20042;-39
2022/10/04 12:01:15;;;;;;;0.60;0.30;;;;;;;;;;4148830;28;20054;-39
2022/10/04 12:03:43;;;;;;;0.75;0.40;;;;;;;;;;4153296;28;20529;-39
2022/10/04 12:05:49;;;;;;;2.20;0.20;;;;;;;;;;4149261;28;20160;-38
2022/10/04 12:08:09;;;;;;;0.75;0.28;;;;;;;;;;4148826;28;20065;-39
2022/10/04 12:10:36;;;;;;;2.58;0.35;;;;;;;;;;4152062;28;20725;-39
2022/10/04 12:13:05;;;;;;;0.22;0.20;;;;;;;;;;4154475;28;20420;-39
2022/10/04 12:15:29;;;;;;;0.63;0.20;;;;;;;;;;4152514;28;20061;-39
2022/10/04 12:17:41;;;;;;;0.80;0.30;;;;;;;;;;4151635;28;20084;-39
2022/10/04 12:20:01;;;;;;;0.52;0.30;;;;;;;;;;4149378;28;20082;-40
2022/10/04 12:22:28;;;;;;;1.75;0.20;;;;;;;;;;4153671;28;20115;-39
2022/10/04 12:25:08;;;;;;;1.75;0.20;;;;;;;;;;4147039;28;20096;-39
2022/10/04 12:27:24;;;;;;;0.60;0.20;;;;;;;;;;4150705;28;20135;-40
2022/10/04 12:29:41;;;;;;;2.83;0.47;;;;;;;;;;4148057;28;20053;-39
2022/10/04 12:31:44;;;;;;;0.65;0.30;;;;;;;;;;4152270;28;20057;-40
2022/10/04 12:33:58;;;;;;;2.05;0.35;;;;;;;;;;4143930;28;20523;-40
2022/10/04 12:36:13;;;;;;;0.40;0.20;;;;;;;;;;4148836;28;20186;-42
2022/10/04 12:38:35;;;;;;;1.23;0.30;;;;;;;;;;4152355;28;20465;-42
2022/10/04 12:40:51;;;;;;;0.63;0.20;;;;;;;;;;4128213;28;20065;-42
2022/10/04 12:43:03;;;;;;;0.80;0.40;;;;;;;;;;4147266;28;20058;-41
2022/10/04 12:45:23;;;;;;;0.52;0.30;;;;;;;;;;4143857;28;20058;-41
2022/10/04 12:48:11;;;;;;;0.50;0.20;;;;;;;;;;4150263;28;20072;-41
2022/10/04 12:50:21;;;;;;;0.97;0.27;;;;;;;;;;4140762;28;20072;-38
2022/10/04 12:52:24;;;;;;;2.25;0.30;;;;;;;;;;4145960;28;21397;-41
2022/10/04 12:54:42;;;;;;;0.70;0.40;;;;;;;;;;4146396;28;20555;-41
2022/10/04 12:57:06;;;;;;;1.63;0.20;;;;;;;;;;4148050;28;20185;-42
2022/10/04 12:59:26;;;;;;;0.52;0.20;;;;;;;;;;4149789;28;20154;-40
2022/10/04 13:02:01;;;;;;;0.45;0.20;;;;;;;;;;4144047;28;20107;-39
2022/10/04 13:04:20;;;;;;;0.88;0.40;;;;;;;;;;4147507;28;20115;-40
2022/10/04 13:06:41;;;;;;;0.80;0.38;;;;;;;;;;4162817;28;20064;-42
2022/10/04 13:09:06;;;;;;;1.70;0.43;;;;;;;;;;4150905;28;20479;-41
2022/10/04 13:11:25;;;;;;;1.23;0.40;;;;;;;;;;4150489;28;20111;-40
2022/10/04 13:13:45;;;;;;;0.90;0.30;;;;;;;;;;4148423;28;20069;-41
2022/10/04 13:15:50;;;;;;;0.55;0.30;;;;;;;;;;4146088;28;20049;-39
2022/10/04 13:17:58;;;;;;;1.50;0.50;;;;;;;;;;4145841;28;20579;-42
2022/10/04 13:20:53;;;;;;;1.88;0.20;;;;;;;;;;4147425;28;20099;-42
2022/10/04 13:23:17;;;;;;;0.20;0.17;;;;;;;;;;4154693;28;20138;-42
2022/10/04 13:25:25;;;;;;;2.40;0.50;;;;;;;;;;4149929;28;20057;-43
2022/10/04 13:27:47;;;;;;;1.42;0.20;;;;;;;;;;4150808;28;20057;-39
2022/10/04 13:30:03;;;;;;;0.60;0.20;;;;;;;;;;4144866;28;20426;-39
2022/10/04 13:32:29;;;;;;;0.30;0.13;;;;;;;;;;4145824;28;20497;-42
2022/10/04 13:35:08;;;;;;;0.43;0.13;;;;;;;;;;4146734;28;20057;-42
2022/10/04 13:37:28;;;;;;;0.73;0.20;;;;;;;;;;4146832;28;20049;-42